Detalii statie ROAGROLTAL [00001D0B]

Toti senzorii

Date Temperatura solului [C]Precipitatii [mm]Voltaj baterie [mV]Leaf Wetness [Min]HC Air temperature [C]HC Relative humidity [%]Punctul de roua [C]
medieminmaxsumaultimatimpmedieminmaxmediemediemin
2019-10-19 23:00:00 14.8 14.8 15 0 6826 12.43 12.25 12.87 100 12.4 12.2
2019-10-20 00:00:00 14.7 14.6 14.9 0 6826 11.71 11.41 12.19 100 11.6 11.4
2019-10-20 01:00:00 14.6 14.5 14.8 0 6816 10.25 9.79 11.39 100 10.2 9.7
2019-10-20 02:00:00 14.4 14.4 14.5 0 6806 11.21 10.25 11.63 100 11.1 10.2
2019-10-20 03:00:00 14.3 14.2 14.5 0 6806 11.9 11.68 12.01 100 11.8 11.6
2019-10-20 04:00:00 14.4 14.3 14.5 0 6796 12.08 11.96 12.19 100 12 11.9
2019-10-20 05:00:00 14.4 14.3 14.5 0 6796 12.08 12.05 12.16 100 12 12
2019-10-20 06:00:00 14.4 14.4 14.5 0 6766 11.96 11.74 12.19 100 11.9 11.7
2019-10-20 07:00:00 14.4 14.3 14.5 0 6756 11.77 11.65 11.93 100 11.7 11.6
2019-10-20 08:00:00 14.4 14.4 14.5 0 6786 12.28 12 12.57 100 12.2 12
2019-10-20 09:00:00 14.4 14.3 14.6 0 6894 12.65 12.47 12.82 100 12.6 12.4
2019-10-20 10:00:00 14.5 14.5 14.7 0 7088 13.2 12.72 13.56 100 13.1 12.7
2019-10-20 11:00:00 14.7 14.6 15 0 7236 14.28 13.79 14.7 100 14.2 13.7
2019-10-20 12:00:00 15.1 15 15.3 0 7246 16.86 14.97 19.38 100 16.8 14.9
2019-10-20 13:00:00 15.6 15.3 16 0 7236 22.4 20.16 23.38 92.14 20.8 19.9
2019-10-20 14:00:00 16.1 15.9 16.5 0 7246 24.03 23.27 24.47 77.22 19.6 18.7
2019-10-20 15:00:00 16.6 16.5 16.9 0 7246 24.55 24.05 24.92 68.45 18.1 17
2019-10-20 16:00:00 16.9 16.8 17 0 7236 24.1 23.39 24.93 69.58 18 17.1
2019-10-20 17:00:00 16.8 16.6 17 0 7158 21.74 19.31 23.35 72.56 16.4 15.6
2019-10-20 18:00:00 16.5 16.4 16.7 0 7070 17.21 15.91 19 91.67 15.6 15.2
2019-10-20 19:00:00 16.2 16.1 16.4 0 6992 14.57 13.95 15.69 100 14.5 13.9
2019-10-20 20:00:00 16 15.8 16.1 0 6922 14.12 13.67 14.32 100 14 13.6
2019-10-20 21:00:00 15.6 15.5 15.8 0 6826 13.75 13.1 14.4 100 13.7 13.1
2019-10-20 22:00:00 15.4 15.4 15.6 0 6806 13.82 13.35 14.18 100 13.7 13.3
2019-10-20 23:00:00 15.3 15.3 15.4 0 6816 13.02 12.75 13.37 100 12.9 12.7
2019-10-21 00:00:00 15.1 15 15.4 0 6816 12.59 12.36 12.74 100 12.5 12.3
2019-10-21 01:00:00 15 14.9 15.1 0 6806 11.97 11.53 12.4 100 11.9 11.5
2019-10-21 02:00:00 14.8 14.7 15 0 6816 11.92 11.67 12.07 100 11.8 11.6
2019-10-21 03:00:00 14.7 14.6 14.9 0 6806 10.91 9.92 11.62 100 10.8 9.9
2019-10-21 04:00:00 14.6 14.5 14.7 0 6816 9.91 9.63 10.3 100 9.8 9.6
2019-10-21 05:00:00 14.5 14.4 14.6 0 6796 10.98 10.4 11.12 100 10.9 10.4
2019-10-21 06:00:00 14.5 14.4 14.6 0 6796 11.24 11.07 11.44 100 11.2 11
2019-10-21 07:00:00 14.4 14.3 14.6 0 6796 11.09 10.78 11.44 100 11 10.7
2019-10-21 08:00:00 14.5 14.5 14.7 0 6834 11.24 10.99 11.5 100 11.1 10.9
2019-10-21 09:00:00 14.5 14.5 14.6 0 6972 11.57 11.26 11.85 100 11.5 11.2
2019-10-21 10:00:00 14.6 14.5 14.7 0 7138 12.15 11.75 12.58 100 12.1 11.7
2019-10-21 11:00:00 14.8 14.7 15 0 7216 12.6 12.25 13.13 100 12.5 12.2
2019-10-21 12:00:00 15 15 15.2 0 7246 13.13 12.8 13.53 100 13 12.8
2019-10-21 13:00:00 15.2 15.1 15.3 0 7246 13.58 13.31 13.86 100 13.5 13.3
2019-10-21 14:00:00 15.4 15.3 15.7 0 7246 15.34 13.77 16.66 100 15.3 13.7
2019-10-21 15:00:00 15.8 15.7 16.1 0 7246 17.87 17.17 18.39 100 17.8 17.1
2019-10-21 16:00:00 16.1 15.9 16.2 0 7246 18.44 18.04 19.23 100 18.3 18
2019-10-21 17:00:00 16 15.9 16.3 0 7176 16.61 15.4 17.93 100 16.5 15.4
2019-10-21 18:00:00 15.8 15.6 15.9 0 7070 13.9 13.13 15.11 100 13.8 13.1
2019-10-21 19:00:00 15.5 15.4 15.7 0 7000 13.23 12.91 13.49 100 13.1 12.9
2019-10-21 20:00:00 15.3 15.2 15.4 0 6932 12.23 11.69 12.98 100 12.1 11.6
2019-10-21 21:00:00 15 14.9 15.2 0 6844 11.55 11.24 11.86 100 11.5 11.2